createdAt,value
2023-05-14T00:02:08.642Z,10.57
2023-05-14T00:04:36.277Z,10.20
2023-05-14T00:07:03.933Z,10.98
2023-05-14T00:09:31.468Z,12.95
2023-05-14T00:12:00.359Z,11.47
2023-05-14T00:14:27.943Z,10.13
2023-05-14T00:16:55.773Z,9.88
2023-05-14T00:19:23.607Z,10.55
2023-05-14T00:21:51.151Z,10.88
2023-05-14T00:24:18.716Z,11.00
2023-05-14T00:26:46.326Z,12.15
2023-05-14T00:29:15.251Z,10.30
2023-05-14T00:31:42.868Z,9.15
2023-05-14T00:34:10.676Z,9.15
2023-05-14T00:36:38.298Z,10.23
2023-05-14T00:39:05.929Z,9.80
2023-05-14T00:41:34.040Z,9.88
2023-05-14T00:44:01.715Z,10.32
2023-05-14T00:46:30.761Z,9.82
2023-05-14T00:48:59.333Z,12.33
2023-05-14T00:51:27.115Z,10.73
2023-05-14T00:53:55.721Z,11.82
2023-05-14T00:56:23.521Z,9.95
2023-05-14T00:58:51.125Z,9.32
2023-05-14T01:01:18.724Z,13.27
2023-05-14T01:03:48.836Z,11.38
2023-05-14T01:06:22.546Z,11.02
2023-05-14T01:09:00.511Z,10.98
2023-05-14T01:11:32.920Z,11.20
2023-05-14T01:14:08.950Z,11.70
2023-05-14T01:16:39.821Z,12.32
2023-05-14T01:19:19.545Z,12.07
2023-05-14T01:21:48.493Z,9.20
2023-05-14T01:24:16.042Z,10.50
2023-05-14T01:26:43.700Z,11.80
2023-05-14T01:29:20.295Z,10.32
2023-05-14T01:31:49.778Z,9.50
2023-05-14T01:34:20.861Z,9.52
2023-05-14T01:36:51.449Z,12.38
2023-05-14T01:39:20.111Z,10.20
2023-05-14T01:41:48.862Z,9.95
2023-05-14T01:44:16.625Z,10.35
2023-05-14T01:46:44.164Z,11.40
2023-05-14T01:49:11.720Z,12.15
2023-05-14T01:51:39.311Z,9.33
2023-05-14T01:54:08.221Z,11.30
2023-05-14T01:56:35.788Z,10.32
2023-05-14T01:59:03.376Z,11.75
2023-05-14T02:01:31.677Z,10.93
2023-05-14T02:03:59.588Z,11.27
2023-05-14T02:06:27.523Z,9.07
2023-05-14T02:08:56.831Z,9.23
2023-05-14T02:11:26.134Z,10.98
2023-05-14T02:13:53.647Z,11.95
2023-05-14T02:16:21.231Z,9.83
2023-05-14T02:18:48.830Z,9.75
2023-05-14T02:21:16.462Z,13.73
2023-05-14T02:23:44.260Z,10.93
2023-05-14T02:26:13.212Z,10.23
2023-05-14T02:28:42.045Z,10.73
2023-05-14T02:31:09.685Z,10.07
2023-05-14T02:33:37.397Z,10.02
2023-05-14T02:36:05.531Z,12.18
2023-05-14T02:38:33.199Z,11.23
2023-05-14T02:41:00.730Z,10.17
2023-05-14T02:43:28.335Z,11.75
2023-05-14T02:45:57.264Z,11.40
2023-05-14T02:48:24.829Z,9.77
2023-05-14T02:50:52.380Z,12.60
2023-05-14T02:53:20.034Z,10.53
2023-05-14T02:55:47.605Z,12.65
2023-05-14T02:58:15.241Z,11.32
2023-05-14T03:00:42.841Z,9.80
2023-05-14T03:03:12.442Z,12.27
2023-05-14T03:05:40.426Z,11.67
2023-05-14T03:08:07.985Z,9.60
2023-05-14T03:10:35.531Z,11.82
2023-05-14T03:13:03.176Z,10.30
2023-05-14T03:15:30.773Z,9.15
2023-05-14T03:17:58.367Z,10.70
2023-05-14T03:20:27.710Z,11.98
2023-05-14T03:22:56.025Z,10.05
2023-05-14T03:25:23.572Z,10.43
2023-05-14T03:27:52.356Z,10.95
2023-05-14T03:30:20.169Z,10.40
2023-05-14T03:32:49.480Z,12.23
2023-05-14T03:35:17.329Z,10.77
2023-05-14T03:37:46.233Z,10.98
2023-05-14T03:40:13.826Z,11.13
2023-05-14T03:42:41.452Z,12.03
2023-05-14T03:45:11.693Z,10.45
2023-05-14T03:47:39.340Z,11.65
2023-05-14T03:50:08.606Z,12.80
2023-05-14T03:52:36.359Z,11.68
2023-05-14T03:55:05.839Z,11.93
2023-05-14T03:57:33.445Z,12.75
2023-05-14T04:00:01.029Z,11.70
2023-05-14T04:02:28.732Z,12.05
2023-05-14T04:04:56.578Z,12.95
2023-05-14T04:07:24.164Z,13.83
2023-05-14T04:09:52.044Z,13.32
2023-05-14T04:12:20.987Z,10.98
2023-05-14T04:14:48.565Z,11.65
2023-05-14T04:17:16.058Z,13.88
2023-05-14T04:19:43.613Z,11.33
2023-05-14T04:22:11.173Z,12.07
2023-05-14T04:24:38.666Z,11.95
2023-05-14T04:27:06.848Z,10.32
2023-05-14T04:29:35.698Z,11.30
2023-05-14T04:32:03.236Z,12.20
2023-05-14T04:34:30.782Z,13.25
2023-05-14T04:36:58.319Z,12.38
2023-05-14T04:39:25.863Z,9.90
2023-05-14T04:41:53.475Z,10.40
2023-05-14T04:44:21.016Z,11.17
2023-05-14T04:46:49.913Z,12.52
2023-05-14T04:49:17.429Z,10.63
2023-05-14T04:51:44.964Z,10.13
2023-05-14T04:54:12.553Z,11.65
2023-05-14T04:56:40.199Z,11.30
2023-05-14T04:59:07.779Z,9.98
2023-05-14T05:01:35.496Z,11.75
2023-05-14T05:04:04.501Z,10.93
2023-05-14T05:06:32.357Z,8.75
2023-05-14T05:09:01.937Z,9.87
2023-05-14T05:11:29.885Z,8.95
2023-05-14T05:13:57.455Z,10.73
2023-05-14T05:16:24.980Z,10.82
2023-05-14T05:18:52.652Z,9.73
2023-05-14T05:21:21.619Z,13.43
2023-05-14T05:23:49.191Z,9.32
2023-05-14T05:26:16.740Z,10.20
2023-05-14T05:28:44.308Z,9.65
2023-05-14T05:31:11.876Z,9.32
2023-05-14T05:33:40.402Z,10.20
2023-05-14T05:36:08.571Z,10.55
2023-05-14T05:38:37.568Z,9.68
2023-05-14T05:41:05.104Z,10.95
2023-05-14T05:43:33.531Z,11.18
2023-05-14T05:46:01.509Z,9.97
2023-05-14T05:48:29.201Z,11.32
2023-05-14T05:50:56.758Z,10.57
2023-05-14T05:53:24.461Z,8.82
2023-05-14T05:55:53.368Z,10.10
2023-05-14T05:58:21.054Z,11.87
2023-05-14T06:00:48.593Z,8.40
2023-05-14T06:03:16.290Z,10.07
2023-05-14T06:05:43.966Z,10.05
2023-05-14T06:08:11.540Z,11.88
2023-05-14T06:10:39.117Z,10.03
2023-05-14T06:13:07.987Z,9.00
2023-05-14T06:15:35.583Z,9.13
2023-05-14T06:18:03.175Z,8.18
2023-05-14T06:20:31.051Z,8.45
2023-05-14T06:22:59.220Z,12.63
2023-05-14T06:25:26.726Z,9.10
2023-05-14T06:27:54.284Z,13.77
2023-05-14T06:30:23.536Z,9.73
2023-05-14T06:32:51.634Z,9.35
2023-05-14T06:35:19.444Z,9.60
2023-05-14T06:37:47.024Z,9.10
2023-05-14T06:40:16.046Z,8.50
2023-05-14T06:42:43.550Z,8.98
2023-05-14T06:45:11.930Z,9.00
2023-05-14T06:47:41.161Z,7.43
2023-05-14T06:50:10.831Z,12.20
2023-05-14T06:52:39.152Z,7.38
2023-05-14T06:55:07.588Z,7.20
2023-05-14T06:57:35.120Z,9.82
2023-05-14T07:00:03.676Z,9.27
2023-05-14T07:02:31.559Z,11.52
2023-05-14T07:05:00.688Z,9.32
2023-05-14T07:07:28.204Z,8.45
2023-05-14T07:09:55.729Z,8.60
2023-05-14T07:12:23.247Z,7.90
2023-05-14T07:14:51.132Z,8.32
2023-05-14T07:17:18.748Z,9.82
2023-05-14T07:19:47.110Z,6.88
2023-05-14T07:22:16.001Z,7.20
2023-05-14T07:24:43.497Z,6.87
2023-05-14T07:27:12.326Z,7.57
2023-05-14T07:29:39.926Z,8.07
2023-05-14T07:32:07.724Z,7.30
2023-05-14T07:34:35.324Z,6.60
2023-05-14T07:37:03.428Z,9.27
2023-05-14T07:39:32.309Z,6.68
2023-05-14T07:41:59.796Z,8.00
2023-05-14T07:44:27.339Z,7.90
2023-05-14T07:46:54.950Z,6.85
2023-05-14T07:49:22.522Z,7.70
2023-05-14T07:51:50.087Z,6.60
2023-05-14T07:54:17.760Z,8.05
2023-05-14T07:56:46.707Z,8.05
2023-05-14T07:59:14.289Z,8.02
2023-05-14T08:01:41.894Z,7.37
2023-05-14T08:04:11.517Z,8.38
2023-05-14T08:06:39.105Z,8.70
2023-05-14T08:09:06.674Z,8.27
2023-05-14T08:11:34.294Z,7.65
2023-05-14T08:14:03.144Z,8.43
2023-05-14T08:16:30.794Z,7.22
2023-05-14T08:18:58.442Z,7.50
2023-05-14T08:21:26.237Z,7.47
2023-05-14T08:23:53.793Z,9.27
2023-05-14T08:26:21.864Z,7.63
2023-05-14T08:28:49.354Z,10.35
2023-05-14T08:31:18.268Z,6.55
2023-05-14T08:33:45.921Z,7.97
2023-05-14T08:36:13.484Z,9.32
2023-05-14T08:38:41.996Z,7.27
2023-05-14T08:41:11.484Z,9.15
2023-05-14T08:43:45.167Z,8.05
2023-05-14T08:46:15.911Z,6.95
2023-05-14T08:48:52.744Z,7.55
2023-05-14T08:51:20.443Z,8.83
2023-05-14T08:53:49.046Z,6.50
2023-05-14T08:56:19.112Z,6.53
2023-05-14T08:58:46.784Z,6.93
2023-05-14T09:01:14.370Z,7.88
2023-05-14T09:03:42.458Z,7.40
2023-05-14T09:06:13.491Z,6.78
2023-05-14T09:08:41.167Z,6.95
2023-05-14T09:11:08.686Z,6.95
2023-05-14T09:13:38.749Z,6.55
2023-05-14T09:16:07.135Z,8.97
2023-05-14T09:18:37.042Z,7.65
2023-05-14T09:21:05.540Z,8.90
2023-05-14T09:23:35.251Z,5.78
2023-05-14T09:26:05.767Z,6.63
2023-05-14T09:28:33.326Z,6.87
2023-05-14T09:31:00.885Z,8.07
2023-05-14T09:33:29.030Z,6.05
2023-05-14T09:35:59.794Z,8.18
2023-05-14T09:38:30.155Z,6.82
2023-05-14T09:40:59.647Z,6.10
2023-05-14T09:43:27.657Z,8.65
2023-05-14T09:45:55.364Z,7.18
2023-05-14T09:48:22.920Z,8.43
2023-05-14T09:50:51.479Z,7.18
2023-05-14T09:53:19.624Z,7.20
2023-05-14T09:55:47.422Z,9.20
2023-05-14T09:58:16.373Z,6.82
2023-05-14T10:00:46.080Z,6.10
2023-05-14T10:03:17.888Z,8.05
2023-05-14T10:05:49.949Z,6.93
2023-05-14T10:08:25.199Z,8.57
2023-05-14T10:10:54.611Z,7.20
2023-05-14T10:13:28.205Z,7.15
2023-05-14T10:16:01.494Z,8.75
2023-05-14T10:18:32.359Z,8.03
2023-05-14T10:21:05.640Z,6.43
2023-05-14T10:23:33.303Z,6.57
2023-05-14T10:26:01.494Z,7.78
2023-05-14T10:28:30.978Z,7.53
2023-05-14T10:30:58.584Z,9.53
2023-05-14T10:33:26.134Z,6.90
2023-05-14T10:36:00.980Z,7.78
2023-05-14T10:38:29.509Z,9.00
2023-05-14T10:40:59.657Z,7.07
2023-05-14T10:43:29.254Z,6.33
2023-05-14T10:46:00.739Z,8.55
2023-05-14T10:48:28.438Z,6.75
2023-05-14T10:50:57.217Z,7.50
2023-05-14T10:53:33.020Z,6.80
2023-05-14T10:56:04.402Z,8.90
2023-05-14T10:58:33.726Z,6.35
2023-05-14T11:01:02.721Z,6.38
2023-05-14T11:03:30.839Z,7.88
2023-05-14T11:05:58.517Z,5.88
2023-05-14T11:08:29.397Z,6.27
2023-05-14T11:10:58.013Z,5.57
2023-05-14T11:13:27.055Z,7.25
2023-05-14T11:15:54.816Z,8.02
2023-05-14T11:18:31.190Z,6.63
2023-05-14T11:21:01.979Z,7.77
2023-05-14T11:23:30.125Z,6.70
2023-05-14T11:25:57.980Z,5.97
2023-05-14T11:28:27.377Z,6.45
2023-05-14T11:30:55.147Z,6.80
2023-05-14T11:33:22.846Z,6.40
2023-05-14T11:35:51.911Z,8.13
2023-05-14T11:38:21.117Z,5.72
2023-05-14T11:40:53.530Z,6.82
2023-05-14T11:43:23.542Z,7.25
2023-05-14T11:45:51.682Z,10.33
2023-05-14T11:48:19.493Z,8.88
2023-05-14T11:50:48.832Z,6.90
2023-05-14T11:53:20.833Z,7.70
2023-05-14T11:55:48.634Z,8.55
2023-05-14T11:58:18.781Z,10.07
2023-05-14T12:00:47.351Z,7.30
2023-05-14T12:03:15.110Z,8.80
2023-05-14T12:05:55.568Z,8.07
2023-05-14T12:08:28.063Z,6.10
2023-05-14T12:10:55.800Z,10.43
2023-05-14T12:13:26.368Z,7.78
2023-05-14T12:15:56.383Z,7.18
2023-05-14T12:18:25.930Z,6.55
2023-05-14T12:20:53.724Z,6.78
2023-05-14T12:23:27.589Z,7.40
2023-05-14T12:25:55.209Z,5.97
2023-05-14T12:28:24.264Z,8.02
2023-05-14T12:30:57.729Z,9.93
2023-05-14T12:33:26.444Z,6.75
2023-05-14T12:35:58.852Z,6.63
2023-05-14T12:38:29.427Z,8.38
2023-05-14T12:40:56.933Z,8.25
2023-05-14T12:43:24.572Z,6.80
2023-05-14T12:45:52.054Z,6.05
2023-05-14T12:48:19.592Z,6.93
2023-05-14T12:50:48.479Z,8.05
2023-05-14T12:53:16.692Z,6.40
2023-05-14T12:55:45.563Z,10.18
2023-05-14T12:58:13.138Z,6.40
2023-05-14T13:00:40.700Z,7.67
2023-05-14T13:03:08.238Z,6.43
2023-05-14T13:05:36.204Z,6.53
2023-05-14T13:08:03.974Z,10.27
2023-05-14T13:10:31.504Z,7.38
2023-05-14T13:13:01.937Z,6.40
2023-05-14T13:15:31.441Z,6.72
2023-05-14T13:17:59.073Z,6.20
2023-05-14T13:20:27.412Z,8.73
2023-05-14T13:22:55.033Z,8.40
2023-05-14T13:25:22.999Z,7.13
2023-05-14T13:27:51.583Z,6.35
2023-05-14T13:30:20.672Z,8.13
2023-05-14T13:32:48.414Z,8.70
2023-05-14T13:35:16.139Z,6.65
2023-05-14T13:37:44.339Z,6.40
2023-05-14T13:40:12.998Z,7.38
2023-05-14T13:42:40.667Z,7.22
2023-05-14T13:45:09.286Z,5.85
2023-05-14T13:47:39.388Z,9.10
2023-05-14T13:50:08.562Z,9.10
2023-05-14T13:52:36.116Z,7.30
2023-05-14T13:55:03.761Z,6.85
2023-05-14T13:57:31.277Z,8.63
2023-05-14T13:59:58.803Z,7.22
2023-05-14T14:02:26.443Z,8.53
2023-05-14T14:04:55.480Z,11.75
2023-05-14T14:07:23.067Z,13.55
2023-05-14T14:09:50.569Z,6.18
2023-05-14T14:12:18.212Z,7.43
2023-05-14T14:14:45.907Z,9.50
2023-05-14T14:17:13.564Z,7.88
2023-05-14T14:19:41.285Z,7.68
2023-05-14T14:22:10.137Z,7.20
2023-05-14T14:24:37.661Z,6.55
2023-05-14T14:27:05.850Z,14.07
2023-05-14T14:29:34.319Z,7.72
2023-05-14T14:32:01.956Z,8.00
2023-05-14T14:34:29.606Z,7.18
2023-05-14T14:36:57.162Z,8.13
2023-05-14T14:39:26.486Z,6.23
2023-05-14T14:41:54.080Z,7.35
2023-05-14T14:44:21.664Z,8.15
2023-05-14T14:46:49.194Z,7.85
2023-05-14T14:49:16.727Z,7.78
2023-05-14T14:51:44.322Z,6.07
2023-05-14T14:54:12.035Z,7.47
2023-05-14T14:56:41.132Z,6.85
2023-05-14T14:59:08.713Z,7.38
2023-05-14T15:01:36.404Z,8.23
2023-05-14T15:04:04.016Z,6.20
2023-05-14T15:06:31.563Z,6.32
2023-05-14T15:08:59.522Z,7.68
2023-05-14T15:11:27.247Z,5.93
2023-05-14T15:13:56.210Z,7.72
2023-05-14T15:16:23.957Z,8.00
2023-05-14T15:18:51.506Z,6.05
2023-05-14T15:21:19.082Z,9.23
2023-05-14T15:23:46.778Z,7.18
2023-05-14T15:26:14.486Z,7.97
2023-05-14T15:28:42.020Z,7.83
2023-05-14T15:31:11.142Z,8.40
2023-05-14T15:33:38.910Z,7.20
2023-05-14T15:36:06.957Z,6.93
2023-05-14T15:38:34.665Z,7.40
2023-05-14T15:41:02.321Z,7.67
2023-05-14T15:43:29.863Z,8.65
2023-05-14T15:45:57.546Z,8.07
2023-05-14T15:48:26.620Z,6.82
2023-05-14T15:50:54.248Z,7.93
2023-05-14T15:53:21.883Z,10.17
2023-05-14T15:55:50.602Z,8.43
2023-05-14T15:58:18.132Z,6.45
2023-05-14T16:00:45.696Z,7.97
2023-05-14T16:03:13.352Z,6.50
2023-05-14T16:05:42.694Z,8.43
2023-05-14T16:08:10.290Z,6.70
2023-05-14T16:10:37.909Z,7.63
2023-05-14T16:13:05.509Z,9.27
2023-05-14T16:15:33.097Z,7.80
2023-05-14T16:18:01.158Z,7.87
2023-05-14T16:20:28.803Z,7.00
2023-05-14T16:22:57.883Z,8.05
2023-05-14T16:25:25.427Z,8.43
2023-05-14T16:27:53.001Z,8.30
2023-05-14T16:30:20.540Z,11.20
2023-05-14T16:32:49.411Z,7.15
2023-05-14T16:35:17.549Z,10.35
2023-05-14T16:37:45.269Z,7.72
2023-05-14T16:40:16.027Z,6.70
2023-05-14T16:42:43.568Z,6.30
2023-05-14T16:45:12.154Z,7.15
2023-05-14T16:47:39.749Z,8.48
2023-05-14T16:50:08.508Z,6.72
2023-05-14T16:52:36.046Z,7.13
2023-05-14T16:55:03.594Z,9.07
2023-05-14T16:57:32.469Z,7.80
2023-05-14T17:00:00.048Z,6.97
2023-05-14T17:02:27.660Z,9.32
2023-05-14T17:04:55.304Z,8.35
2023-05-14T17:07:22.933Z,7.57
2023-05-14T17:09:50.475Z,9.73
2023-05-14T17:12:17.968Z,6.93
2023-05-14T17:14:46.806Z,9.05
2023-05-14T17:17:14.313Z,9.82
2023-05-14T17:19:42.287Z,8.40
2023-05-14T17:22:09.845Z,6.72
2023-05-14T17:24:38.952Z,6.00
2023-05-14T17:27:07.212Z,7.30
2023-05-14T17:29:34.771Z,7.03
2023-05-14T17:32:04.751Z,10.63
2023-05-14T17:34:32.312Z,9.43
2023-05-14T17:37:00.787Z,6.05
2023-05-14T17:39:29.020Z,6.43
2023-05-14T17:41:56.525Z,8.30
2023-05-14T17:44:24.094Z,8.47
2023-05-14T17:46:51.778Z,7.55
2023-05-14T17:49:20.738Z,6.82
2023-05-14T17:51:48.539Z,9.15
2023-05-14T17:54:16.181Z,8.57
2023-05-14T17:56:43.999Z,6.63
2023-05-14T17:59:11.515Z,9.07
2023-05-14T18:01:39.072Z,7.10
2023-05-14T18:04:06.828Z,7.30
2023-05-14T18:06:35.806Z,7.88
2023-05-14T18:09:03.721Z,6.67
2023-05-14T18:11:33.734Z,7.30
2023-05-14T18:14:02.011Z,6.30
2023-05-14T18:16:30.073Z,8.60
2023-05-14T18:18:57.686Z,12.23
2023-05-14T18:21:25.257Z,7.97
2023-05-14T18:23:54.203Z,6.88
2023-05-14T18:26:23.070Z,7.38
2023-05-14T18:28:50.633Z,6.32
2023-05-14T18:31:18.176Z,5.95
2023-05-14T18:33:45.814Z,7.23
2023-05-14T18:36:13.476Z,9.40
2023-05-14T18:38:41.813Z,6.82
2023-05-14T18:41:10.767Z,7.70
2023-05-14T18:43:38.267Z,7.25
2023-05-14T18:46:05.968Z,9.43
2023-05-14T18:48:33.885Z,8.52
2023-05-14T18:51:01.432Z,7.50
2023-05-14T18:53:29.278Z,6.75
2023-05-14T18:55:56.817Z,11.43
2023-05-14T18:58:25.693Z,8.87
2023-05-14T19:00:53.345Z,8.50
2023-05-14T19:03:20.977Z,7.82
2023-05-14T19:05:50.471Z,7.95
2023-05-14T19:08:18.196Z,7.18
2023-05-14T19:10:45.707Z,9.50
2023-05-14T19:13:13.212Z,8.80
2023-05-14T19:15:44.849Z,9.18
2023-05-14T19:18:13.803Z,11.18
2023-05-14T19:20:42.170Z,8.57
2023-05-14T19:23:09.686Z,7.73
2023-05-14T19:25:37.261Z,11.18
2023-05-14T19:28:05.831Z,7.75
2023-05-14T19:30:33.406Z,8.70
2023-05-14T19:33:02.412Z,9.05
2023-05-14T19:35:30.134Z,10.67
2023-05-14T19:37:57.712Z,10.73
2023-05-14T19:40:25.249Z,12.20
2023-05-14T19:42:53.033Z,9.77
2023-05-14T19:45:20.574Z,9.40
2023-05-14T19:47:48.366Z,7.80
2023-05-14T19:50:17.490Z,8.80
2023-05-14T19:52:45.021Z,7.25
2023-05-14T19:55:12.559Z,8.32
2023-05-14T19:57:40.113Z,10.18
2023-05-14T20:00:10.450Z,10.27
2023-05-14T20:02:41.924Z,8.98
2023-05-14T20:05:10.486Z,7.63
2023-05-14T20:07:40.555Z,8.15
2023-05-14T20:10:09.193Z,9.95
2023-05-14T20:12:36.769Z,10.23
2023-05-14T20:15:04.816Z,8.48
2023-05-14T20:17:32.452Z,8.80
2023-05-14T20:20:00.008Z,10.25
2023-05-14T20:22:27.617Z,11.40
2023-05-14T20:24:56.456Z,9.63
2023-05-14T20:27:24.001Z,9.48
2023-05-14T20:29:53.847Z,9.38
2023-05-14T20:32:24.681Z,9.40
2023-05-14T20:34:52.343Z,9.13
2023-05-14T20:37:20.178Z,9.43
2023-05-14T20:39:47.922Z,8.73
2023-05-14T20:42:16.859Z,9.40
2023-05-14T20:44:44.517Z,12.32
2023-05-14T20:47:16.277Z,10.57
2023-05-14T20:49:44.072Z,10.27
2023-05-14T20:52:11.631Z,8.82
2023-05-14T20:54:39.211Z,8.13
2023-05-14T20:57:07.113Z,8.52
2023-05-14T20:59:36.049Z,11.55
2023-05-14T21:02:03.709Z,7.97
2023-05-14T21:04:31.426Z,10.30
2023-05-14T21:06:59.056Z,9.75
2023-05-14T21:09:27.225Z,7.72
2023-05-14T21:11:55.027Z,9.75
2023-05-14T21:14:22.711Z,9.93
2023-05-14T21:16:51.617Z,8.40
2023-05-14T21:19:19.247Z,7.45
2023-05-14T21:21:47.322Z,9.55
2023-05-14T21:24:16.645Z,8.48
2023-05-14T21:26:44.303Z,9.53
2023-05-14T21:29:11.979Z,9.90
2023-05-14T21:31:39.506Z,10.38
2023-05-14T21:34:08.390Z,11.38
2023-05-14T21:36:36.336Z,10.40
2023-05-14T21:39:03.930Z,11.23
2023-05-14T21:41:32.586Z,9.00
2023-05-14T21:44:00.293Z,10.10
2023-05-14T21:46:28.808Z,9.82
2023-05-14T21:48:56.509Z,9.55
2023-05-14T21:51:25.472Z,10.43
2023-05-14T21:53:53.020Z,8.50
2023-05-14T21:56:21.043Z,9.88
2023-05-14T21:58:48.648Z,9.02
2023-05-14T22:01:16.282Z,11.27
2023-05-14T22:03:43.896Z,9.40
2023-05-14T22:06:11.533Z,9.10
2023-05-14T22:08:40.519Z,10.55
2023-05-14T22:11:08.067Z,10.30
2023-05-14T22:13:40.581Z,10.48
2023-05-14T22:16:13.195Z,8.63
2023-05-14T22:18:41.548Z,10.32
2023-05-14T22:21:09.185Z,9.20
2023-05-14T22:23:37.430Z,10.23
2023-05-14T22:26:06.518Z,8.88
2023-05-14T22:28:34.033Z,9.57
2023-05-14T22:31:01.608Z,10.77
2023-05-14T22:33:29.166Z,9.13
2023-05-14T22:35:56.707Z,10.00
2023-05-14T22:38:24.318Z,8.98
2023-05-14T22:40:51.815Z,10.10
2023-05-14T22:43:20.661Z,9.48
2023-05-14T22:45:48.200Z,10.63
2023-05-14T22:48:15.736Z,8.68
2023-05-14T22:50:43.370Z,9.98
2023-05-14T22:53:10.957Z,10.67
2023-05-14T22:55:38.519Z,10.25
2023-05-14T22:58:06.116Z,9.32
2023-05-14T23:00:35.014Z,8.82
2023-05-14T23:03:02.574Z,10.93
2023-05-14T23:05:30.648Z,11.30
2023-05-14T23:07:58.257Z,10.63
2023-05-14T23:10:25.775Z,9.88
2023-05-14T23:12:53.317Z,10.30
2023-05-14T23:15:20.801Z,10.27
2023-05-14T23:17:49.825Z,10.60
2023-05-14T23:20:17.442Z,13.65
2023-05-14T23:22:44.990Z,12.10
2023-05-14T23:25:12.522Z,12.60
2023-05-14T23:27:40.290Z,10.45
2023-05-14T23:30:09.015Z,10.23
2023-05-14T23:32:36.557Z,8.85
2023-05-14T23:35:06.308Z,11.65
2023-05-14T23:37:36.636Z,11.82
2023-05-14T23:40:04.762Z,10.70
2023-05-14T23:42:32.259Z,10.80
2023-05-14T23:44:59.818Z,10.57
2023-05-14T23:47:27.429Z,10.45
2023-05-14T23:49:54.993Z,11.25
2023-05-14T23:52:23.858Z,10.77
2023-05-14T23:54:51.413Z,10.33
2023-05-14T23:57:19.069Z,12.38
2023-05-14T23:59:46.670Z,11.27
